PWSweather.com
Personal Weather Stations
Station Observations
KOMOKA
Komoka Village, Komoka, ON N0L IRO

Komoka VillageKomoka, ON N0L IRO

Lat: 42.9542444, Lon: -81.4348861

Elevation: 805

Station Type: Davis Vantage Pro 2

www.komokaweather.com

High Low Average
Temperature 84.4°F29.1°C 60.1°F15.6°C 69.1°F20.6°C
Dew Point 64.0°F17.8°C 52.5°F11.4°C 58.4°F14.7°C
Winds 8.0 mph 12.9 kmh Calm Calm 2.0 mph ESE3.2 kmh ESE
Wind Gusts 27.0 mph43.5 kmh -- 5.0 mph8.0 kmh
Humidity 77% 48% 70%
Pressure 29.93 in1013.5 mb 29.80 in1009.1 mb -
Precipitation 0.46 in11.7 mm - -
Hour Temp Dew Point Humidity Winds Wind Gusts Pressure Precip Precip Rate Daily Precip Total
12:05 AM 61.9°F16.6°C 54.1°F12.3°C 76% Calm Calm -- 29.92 in1013.2 mb 0.00 in0.0 mm 0.00 in0.0 mm 0.00 in0.0 mm
12:12 AM 61.5°F16.4°C 53.6°F12.0°C 75% Calm Calm -- 29.91 in1012.9 mb 0.00 in0.0 mm 0.00 in0.0 mm 0.00 in0.0 mm
12:19 AM 61.7°F16.5°C 53.8°F12.1°C 75% Calm Calm -- 29.92 in1013.2 mb 0.00 in0.0 mm 0.00 in0.0 mm 0.00 in0.0 mm
12:26 AM 61.7°F16.5°C 53.8°F12.1°C 75% Calm Calm -- 29.91 in1012.9 mb 0.00 in0.0 mm 0.00 in0.0 mm 0.00 in0.0 mm
12:33 AM 61.7°F16.5°C 54.1°F12.3°C 76% Calm Calm -- 29.92 in1013.2 mb 0.00 in0.0 mm 0.00 in0.0 mm 0.00 in0.0 mm
12:40 AM 62.1°F16.7°C 54.3°F12.4°C 76% Calm Calm -- 29.92 in1013.2 mb 0.00 in0.0 mm 0.00 in0.0 mm 0.00 in0.0 mm
12:47 AM 62.1°F16.7°C 54.5°F12.5°C 76% Calm Calm -- 29.92 in1013.2 mb 0.00 in0.0 mm 0.00 in0.0 mm 0.00 in0.0 mm
12:54 AM 62.1°F16.7°C 54.5°F12.5°C 76% Calm Calm -- 29.92 in1013.2 mb 0.00 in0.0 mm 0.00 in0.0 mm 0.00 in0.0 mm
01:01 AM 62.2°F16.8°C 54.5°F12.5°C 76% Calm Calm -- 29.93 in1013.5 mb 0.00 in0.0 mm 0.00 in0.0 mm 0.00 in0.0 mm
01:08 AM 62.2°F16.8°C 54.5°F12.5°C 76% Calm Calm -- 29.93 in1013.5 mb 0.00 in0.0 mm 0.00 in0.0 mm 0.00 in0.0 mm
01:15 AM 62.2°F16.8°C 54.7°F12.6°C 76% Calm Calm -- 29.93 in1013.5 mb 0.00 in0.0 mm 0.00 in0.0 mm 0.00 in0.0 mm
01:22 AM 62.4°F16.9°C 54.7°F12.6°C 76% Calm Calm -- 29.93 in1013.5 mb 0.00 in0.0 mm 0.00 in0.0 mm 0.00 in0.0 mm
01:29 AM 62.4°F16.9°C 54.7°F12.6°C 76% Calm Calm -- 29.92 in1013.2 mb 0.00 in0.0 mm 0.00 in0.0 mm 0.00 in0.0 mm
01:36 AM 62.2°F16.8°C 54.7°F12.6°C 76% Calm Calm -- 29.92 in1013.2 mb 0.00 in0.0 mm 0.00 in0.0 mm 0.00 in0.0 mm
01:43 AM 62.4°F16.9°C 54.7°F12.6°C 76% Calm Calm -- 29.92 in1013.2 mb 0.00 in0.0 mm 0.00 in0.0 mm 0.00 in0.0 mm
01:50 AM 62.4°F16.9°C 54.9°F12.7°C 76% Calm Calm -- 29.92 in1013.2 mb 0.00 in0.0 mm 0.00 in0.0 mm 0.00 in0.0 mm
01:57 AM 62.4°F16.9°C 54.9°F12.7°C 76% Calm Calm -- 29.92 in1013.2 mb 0.00 in0.0 mm 0.00 in0.0 mm 0.00 in0.0 mm
02:04 AM 62.4°F16.9°C 54.9°F12.7°C 76% Calm Calm -- 29.92 in1013.2 mb 0.00 in0.0 mm 0.00 in0.0 mm 0.00 in0.0 mm
02:11 AM 62.8°F17.1°C 55.0°F12.8°C 76% Calm Calm -- 29.92 in1013.2 mb 0.00 in0.0 mm 0.00 in0.0 mm 0.00 in0.0 mm
02:18 AM 62.8°F17.1°C 55.0°F12.8°C 76% Calm Calm -- 29.91 in1012.9 mb 0.00 in0.0 mm 0.00 in0.0 mm 0.00 in0.0 mm
02:25 AM 62.8°F17.1°C 55.0°F12.8°C 76% Calm Calm -- 29.91 in1012.9 mb 0.00 in0.0 mm 0.00 in0.0 mm 0.00 in0.0 mm
02:32 AM 62.8°F17.1°C 55.0°F12.8°C 76% Calm Calm -- 29.91 in1012.9 mb 0.00 in0.0 mm 0.00 in0.0 mm 0.00 in0.0 mm
02:39 AM 62.8°F17.1°C 55.0°F12.8°C 76% Calm Calm -- 29.91 in1012.9 mb 0.00 in0.0 mm 0.00 in0.0 mm 0.00 in0.0 mm
02:46 AM 62.8°F17.1°C 55.0°F12.8°C 76% Calm Calm -- 29.91 in1012.9 mb 0.00 in0.0 mm 0.00 in0.0 mm 0.00 in0.0 mm
02:53 AM 62.8°F17.1°C 55.0°F12.8°C 76% Calm Calm -- 29.91 in1012.9 mb 0.00 in0.0 mm 0.00 in0.0 mm 0.00 in0.0 mm
03:00 AM 63.0°F17.2°C 55.2°F12.9°C 76% Calm Calm -- 29.91 in1012.9 mb 0.00 in0.0 mm 0.00 in0.0 mm 0.00 in0.0 mm
03:07 AM 63.0°F17.2°C 55.4°F13.0°C 76% Calm Calm -- 29.91 in1012.9 mb 0.00 in0.0 mm 0.00 in0.0 mm 0.00 in0.0 mm
03:14 AM 63.0°F17.2°C 55.4°F13.0°C 76% Calm Calm -- 29.91 in1012.9 mb 0.00 in0.0 mm 0.00 in0.0 mm 0.00 in0.0 mm
03:21 AM 63.1°F17.3°C 55.4°F13.0°C 76% Calm Calm -- 29.91 in1012.9 mb 0.00 in0.0 mm 0.00 in0.0 mm 0.00 in0.0 mm
03:28 AM 63.1°F17.3°C 55.2°F12.9°C 75% Calm Calm -- 29.91 in1012.9 mb 0.00 in0.0 mm 0.00 in0.0 mm 0.00 in0.0 mm
03:35 AM 63.1°F17.3°C 55.2°F12.9°C 75% Calm Calm -- 29.90 in1012.5 mb 0.00 in0.0 mm 0.00 in0.0 mm 0.00 in0.0 mm
03:42 AM 63.1°F17.3°C 55.2°F12.9°C 75% Calm Calm -- 29.90 in1012.5 mb 0.00 in0.0 mm 0.00 in0.0 mm 0.00 in0.0 mm
03:49 AM 63.1°F17.3°C 55.2°F12.9°C 75% Calm Calm -- 29.90 in1012.5 mb 0.00 in0.0 mm 0.00 in0.0 mm 0.00 in0.0 mm
03:56 AM 63.1°F17.3°C 55.2°F12.9°C 75% Calm Calm -- 29.89 in1012.2 mb 0.00 in0.0 mm 0.00 in0.0 mm 0.00 in0.0 mm
04:03 AM 63.1°F17.3°C 55.2°F12.9°C 75% Calm Calm -- 29.89 in1012.2 mb 0.00 in0.0 mm 0.00 in0.0 mm 0.00 in0.0 mm
04:10 AM 63.1°F17.3°C 55.0°F12.8°C 75% Calm Calm -- 29.90 in1012.5 mb 0.00 in0.0 mm 0.00 in0.0 mm 0.00 in0.0 mm
04:17 AM 63.1°F17.3°C 55.0°F12.8°C 75% Calm Calm -- 29.89 in1012.2 mb 0.00 in0.0 mm 0.00 in0.0 mm 0.00 in0.0 mm
04:24 AM 62.8°F17.1°C 55.0°F12.8°C 76% Calm Calm -- 29.89 in1012.2 mb 0.00 in0.0 mm 0.00 in0.0 mm 0.00 in0.0 mm
04:31 AM 62.8°F17.1°C 55.0°F12.8°C 76% Calm Calm -- 29.90 in1012.5 mb 0.00 in0.0 mm 0.00 in0.0 mm 0.00 in0.0 mm
04:38 AM 62.4°F16.9°C 54.9°F12.7°C 76% Calm Calm -- 29.89 in1012.2 mb 0.00 in0.0 mm 0.00 in0.0 mm 0.00 in0.0 mm
04:45 AM 62.4°F16.9°C 54.9°F12.7°C 76% Calm Calm -- 29.89 in1012.2 mb 0.00 in0.0 mm 0.00 in0.0 mm 0.00 in0.0 mm
04:52 AM 62.4°F16.9°C 54.7°F12.6°C 76% Calm Calm -- 29.89 in1012.2 mb 0.00 in0.0 mm 0.00 in0.0 mm 0.00 in0.0 mm
04:59 AM 61.9°F16.6°C 54.3°F12.4°C 76% Calm Calm -- 29.89 in1012.2 mb 0.00 in0.0 mm 0.00 in0.0 mm 0.00 in0.0 mm
05:06 AM 61.3°F16.3°C 53.6°F12.0°C 76% Calm Calm -- 29.89 in1012.2 mb 0.00 in0.0 mm 0.00 in0.0 mm 0.00 in0.0 mm
05:13 AM 61.3°F16.3°C 53.6°F12.0°C 76% Calm Calm -- 29.89 in1012.2 mb 0.00 in0.0 mm 0.00 in0.0 mm 0.00 in0.0 mm
05:20 AM 61.3°F16.3°C 53.8°F12.1°C 76% Calm Calm -- 29.89 in1012.2 mb 0.00 in0.0 mm 0.00 in0.0 mm 0.00 in0.0 mm
05:27 AM 61.3°F16.3°C 53.8°F12.1°C 76% Calm Calm -- 29.89 in1012.2 mb 0.00 in0.0 mm 0.00 in0.0 mm 0.00 in0.0 mm
05:34 AM 61.3°F16.3°C 53.6°F12.0°C 76% Calm Calm -- 29.89 in1012.2 mb 0.00 in0.0 mm 0.00 in0.0 mm 0.00 in0.0 mm
05:41 AM 61.2°F16.2°C 53.6°F12.0°C 76% Calm Calm -- 29.89 in1012.2 mb 0.00 in0.0 mm 0.00 in0.0 mm 0.00 in0.0 mm
05:48 AM 61.0°F16.1°C 53.4°F11.9°C 76% Calm Calm -- 29.89 in1012.2 mb 0.00 in0.0 mm 0.00 in0.0 mm 0.00 in0.0 mm
05:55 AM 61.0°F16.1°C 53.4°F11.9°C 76% Calm Calm -- 29.89 in1012.2 mb 0.00 in0.0 mm 0.00 in0.0 mm 0.00 in0.0 mm
06:02 AM 60.6°F15.9°C 53.1°F11.7°C 76% Calm Calm -- 29.89 in1012.2 mb 0.00 in0.0 mm 0.00 in0.0 mm 0.00 in0.0 mm
06:09 AM 60.3°F15.7°C 52.7°F11.5°C 76% Calm Calm -- 29.89 in1012.2 mb 0.00 in0.0 mm 0.00 in0.0 mm 0.00 in0.0 mm
06:16 AM 60.1°F15.6°C 52.5°F11.4°C 76% Calm Calm -- 29.89 in1012.2 mb 0.00 in0.0 mm 0.00 in0.0 mm 0.00 in0.0 mm
06:23 AM 60.3°F15.7°C 52.7°F11.5°C 76% Calm Calm -- 29.89 in1012.2 mb 0.00 in0.0 mm 0.00 in0.0 mm 0.00 in0.0 mm
06:30 AM 60.4°F15.8°C 52.9°F11.6°C 76% Calm Calm -- 29.89 in1012.2 mb 0.00 in0.0 mm 0.00 in0.0 mm 0.00 in0.0 mm
06:37 AM 60.4°F15.8°C 52.9°F11.6°C 76% Calm Calm -- 29.89 in1012.2 mb 0.00 in0.0 mm 0.00 in0.0 mm 0.00 in0.0 mm
06:44 AM 60.1°F15.6°C 52.5°F11.4°C 76% Calm Calm -- 29.89 in1012.2 mb 0.00 in0.0 mm 0.00 in0.0 mm 0.00 in0.0 mm
06:51 AM 60.1°F15.6°C 52.5°F11.4°C 76% Calm Calm -- 29.89 in1012.2 mb 0.00 in0.0 mm 0.00 in0.0 mm 0.00 in0.0 mm
06:58 AM 60.4°F15.8°C 53.2°F11.8°C 77% Calm Calm -- 29.89 in1012.2 mb 0.00 in0.0 mm 0.00 in0.0 mm 0.00 in0.0 mm
07:05 AM 60.6°F15.9°C 53.4°F11.9°C 77% Calm Calm -- 29.88 in1011.9 mb 0.00 in0.0 mm 0.00 in0.0 mm 0.00 in0.0 mm
07:12 AM 61.3°F16.3°C 54.1°F12.3°C 77% Calm Calm -- 29.88 in1011.9 mb 0.00 in0.0 mm 0.00 in0.0 mm 0.00 in0.0 mm
07:19 AM 62.1°F16.7°C 54.7°F12.6°C 77% Calm Calm -- 29.88 in1011.9 mb 0.00 in0.0 mm 0.00 in0.0 mm 0.00 in0.0 mm
07:26 AM 62.8°F17.1°C 55.0°F12.8°C 76% Calm Calm -- 29.88 in1011.9 mb 0.00 in0.0 mm 0.00 in0.0 mm 0.00 in0.0 mm
07:33 AM 63.5°F17.5°C 55.8°F13.2°C 76% Calm Calm -- 29.88 in1011.9 mb 0.00 in0.0 mm 0.00 in0.0 mm 0.00 in0.0 mm
07:40 AM 64.8°F18.2°C 57.0°F13.9°C 76% Calm Calm -- 29.88 in1011.9 mb 0.00 in0.0 mm 0.00 in0.0 mm 0.00 in0.0 mm
07:47 AM 65.8°F18.8°C 58.1°F14.5°C 76% Calm Calm -- 29.88 in1011.9 mb 0.00 in0.0 mm 0.00 in0.0 mm 0.00 in0.0 mm
07:54 AM 66.9°F19.4°C 58.8°F14.9°C 75% Calm Calm -- 29.88 in1011.9 mb 0.00 in0.0 mm 0.00 in0.0 mm 0.00 in0.0 mm
08:01 AM 68.4°F20.2°C 60.1°F15.6°C 75% Calm Calm -- 29.88 in1011.9 mb 0.00 in0.0 mm 0.00 in0.0 mm 0.00 in0.0 mm
08:08 AM 69.3°F20.7°C 60.3°F15.7°C 73% Calm Calm -- 29.88 in1011.9 mb 0.00 in0.0 mm 0.00 in0.0 mm 0.00 in0.0 mm
08:15 AM 70.3°F21.3°C 60.4°F15.8°C 71% Calm Calm 4.0 mph6.4 kmh 29.88 in1011.9 mb 0.00 in0.0 mm 0.00 in0.0 mm 0.00 in0.0 mm
08:22 AM 70.5°F21.4°C 60.3°F15.7°C 70% 1.0 mph W1.6 kmh W 4.0 mph6.4 kmh 29.88 in1011.9 mb 0.00 in0.0 mm 0.00 in0.0 mm 0.00 in0.0 mm
08:29 AM 71.1°F21.7°C 60.4°F15.8°C 69% Calm Calm 3.0 mph4.8 kmh 29.88 in1011.9 mb 0.00 in0.0 mm 0.00 in0.0 mm 0.00 in0.0 mm
08:36 AM 71.1°F21.7°C 60.3°F15.7°C 69% Calm Calm 3.0 mph4.8 kmh 29.88 in1011.9 mb 0.00 in0.0 mm 0.00 in0.0 mm 0.00 in0.0 mm
08:43 AM 71.2°F21.8°C 60.6°F15.9°C 69% Calm Calm 4.0 mph6.4 kmh 29.88 in1011.9 mb 0.00 in0.0 mm 0.00 in0.0 mm 0.00 in0.0 mm
08:50 AM 72.3°F22.4°C 61.2°F16.2°C 68% 1.0 mph NW1.6 kmh NW 4.0 mph6.4 kmh 29.88 in1011.9 mb 0.00 in0.0 mm 0.00 in0.0 mm 0.00 in0.0 mm
08:57 AM 73.8°F23.2°C 61.7°F16.5°C 66% 1.0 mph SW1.6 kmh SW 7.0 mph11.3 kmh 29.87 in1011.5 mb 0.00 in0.0 mm 0.00 in0.0 mm 0.00 in0.0 mm
09:04 AM 74.8°F23.8°C 61.9°F16.6°C 64% 1.0 mph SW1.6 kmh SW 5.0 mph8.0 kmh 29.87 in1011.5 mb 0.00 in0.0 mm 0.00 in0.0 mm 0.00 in0.0 mm
09:11 AM 75.7°F24.3°C 61.7°F16.5°C 62% 3.0 mph WSW4.8 kmh WSW 8.0 mph12.9 kmh 29.87 in1011.5 mb 0.00 in0.0 mm 0.00 in0.0 mm 0.00 in0.0 mm
09:18 AM 76.5°F24.7°C 62.4°F16.9°C 62% 3.0 mph WSW4.8 kmh WSW 8.0 mph12.9 kmh 29.87 in1011.5 mb 0.00 in0.0 mm 0.00 in0.0 mm 0.00 in0.0 mm
09:25 AM 77.4°F25.2°C 62.4°F16.9°C 60% 3.0 mph SW4.8 kmh SW 9.0 mph14.5 kmh 29.86 in1011.2 mb 0.00 in0.0 mm 0.00 in0.0 mm 0.00 in0.0 mm
09:32 AM 78.3°F25.7°C 62.8°F17.1°C 59% 3.0 mph SW4.8 kmh SW 7.0 mph11.3 kmh 29.86 in1011.2 mb 0.00 in0.0 mm 0.00 in0.0 mm 0.00 in0.0 mm
09:39 AM 78.4°F25.8°C 63.0°F17.2°C 59% 3.0 mph SW4.8 kmh SW 8.0 mph12.9 kmh 29.86 in1011.2 mb 0.00 in0.0 mm 0.00 in0.0 mm 0.00 in0.0 mm
09:46 AM 79.3°F26.3°C 63.3°F17.4°C 58% 3.0 mph SW4.8 kmh SW 8.0 mph12.9 kmh 29.86 in1011.2 mb 0.00 in0.0 mm 0.00 in0.0 mm 0.00 in0.0 mm
09:53 AM 79.9°F26.6°C 63.1°F17.3°C 57% 1.0 mph SW1.6 kmh SW 7.0 mph11.3 kmh 29.86 in1011.2 mb 0.00 in0.0 mm 0.00 in0.0 mm 0.00 in0.0 mm
10:00 AM 79.9°F26.6°C 62.8°F17.1°C 56% 3.0 mph SW4.8 kmh SW 7.0 mph11.3 kmh 29.86 in1011.2 mb 0.00 in0.0 mm 0.00 in0.0 mm 0.00 in0.0 mm
10:07 AM 80.6°F27.0°C 63.5°F17.5°C 56% 3.0 mph SW4.8 kmh SW 8.0 mph12.9 kmh 29.85 in1010.8 mb 0.00 in0.0 mm 0.00 in0.0 mm 0.00 in0.0 mm
10:14 AM 81.1°F27.3°C 63.3°F17.4°C 55% 4.0 mph SW6.4 kmh SW 8.0 mph12.9 kmh 29.86 in1011.2 mb 0.00 in0.0 mm 0.00 in0.0 mm 0.00 in0.0 mm
10:21 AM 81.7°F27.6°C 63.0°F17.2°C 53% 4.0 mph SW6.4 kmh SW 9.0 mph14.5 kmh 29.86 in1011.2 mb 0.00 in0.0 mm 0.00 in0.0 mm 0.00 in0.0 mm
10:28 AM 82.0°F27.8°C 63.7°F17.6°C 54% 4.0 mph SW6.4 kmh SW 11.0 mph17.7 kmh 29.85 in1010.8 mb 0.00 in0.0 mm 0.00 in0.0 mm 0.00 in0.0 mm
10:35 AM 82.2°F27.9°C 63.3°F17.4°C 53% 4.0 mph SW6.4 kmh SW 9.0 mph14.5 kmh 29.84 in1010.5 mb 0.00 in0.0 mm 0.00 in0.0 mm 0.00 in0.0 mm
10:42 AM 82.6°F28.1°C 63.1°F17.3°C 52% 4.0 mph SW6.4 kmh SW 8.0 mph12.9 kmh 29.84 in1010.5 mb 0.00 in0.0 mm 0.00 in0.0 mm 0.00 in0.0 mm
10:49 AM 83.1°F28.4°C 63.7°F17.6°C 52% 4.0 mph SW6.4 kmh SW 11.0 mph17.7 kmh 29.84 in1010.5 mb 0.00 in0.0 mm 0.00 in0.0 mm 0.00 in0.0 mm
10:56 AM 83.7°F28.7°C 64.0°F17.8°C 52% 5.0 mph SW8.0 kmh SW 16.0 mph25.7 kmh 29.84 in1010.5 mb 0.00 in0.0 mm 0.00 in0.0 mm 0.00 in0.0 mm
11:03 AM 83.3°F28.5°C 62.8°F17.1°C 50% 5.0 mph SW8.0 kmh SW 16.0 mph25.7 kmh 29.84 in1010.5 mb 0.00 in0.0 mm 0.00 in0.0 mm 0.00 in0.0 mm
11:10 AM 83.3°F28.5°C 63.3°F17.4°C 51% 7.0 mph SW11.3 kmh SW 16.0 mph25.7 kmh 29.84 in1010.5 mb 0.00 in0.0 mm 0.00 in0.0 mm 0.00 in0.0 mm
11:17 AM 83.7°F28.7°C 63.0°F17.2°C 50% 5.0 mph SW8.0 kmh SW 15.0 mph24.1 kmh 29.84 in1010.5 mb 0.00 in0.0 mm 0.00 in0.0 mm 0.00 in0.0 mm
11:24 AM 83.7°F28.7°C 63.1°F17.3°C 50% 8.0 mph SW12.9 kmh SW 17.0 mph27.4 kmh 29.84 in1010.5 mb 0.00 in0.0 mm 0.00 in0.0 mm 0.00 in0.0 mm
11:31 AM 83.8°F28.8°C 63.1°F17.3°C 50% 8.0 mph SW12.9 kmh SW 17.0 mph27.4 kmh 29.84 in1010.5 mb 0.00 in0.0 mm 0.00 in0.0 mm 0.00 in0.0 mm
11:38 AM 82.9°F28.3°C 62.4°F16.9°C 50% 5.0 mph SW8.0 kmh SW 19.0 mph30.6 kmh 29.85 in1010.8 mb 0.00 in0.0 mm 0.00 in0.0 mm 0.00 in0.0 mm
11:45 AM 82.9°F28.3°C 62.4°F16.9°C 50% 7.0 mph SW11.3 kmh SW 19.0 mph30.6 kmh 29.85 in1010.8 mb 0.00 in0.0 mm 0.00 in0.0 mm 0.00 in0.0 mm
11:52 AM 82.9°F28.3°C 62.4°F16.9°C 50% 7.0 mph SW11.3 kmh SW 17.0 mph27.4 kmh 29.84 in1010.5 mb 0.00 in0.0 mm 0.00 in0.0 mm 0.00 in0.0 mm
11:59 AM 82.9°F28.3°C 62.4°F16.9°C 50% 7.0 mph SW11.3 kmh SW 20.0 mph32.2 kmh 29.84 in1010.5 mb 0.00 in0.0 mm 0.00 in0.0 mm 0.00 in0.0 mm
12:06 PM 83.5°F28.6°C 62.8°F17.1°C 50% 5.0 mph WSW8.0 kmh WSW 15.0 mph24.1 kmh 29.84 in1010.5 mb 0.00 in0.0 mm 0.00 in0.0 mm 0.00 in0.0 mm
12:13 PM 82.8°F28.2°C 62.8°F17.1°C 51% 5.0 mph SW8.0 kmh SW 13.0 mph20.9 kmh 29.84 in1010.5 mb 0.00 in0.0 mm 0.00 in0.0 mm 0.00 in0.0 mm
12:20 PM 82.8°F28.2°C 62.8°F17.1°C 51% 4.0 mph WSW6.4 kmh WSW 9.0 mph14.5 kmh 29.84 in1010.5 mb 0.00 in0.0 mm 0.00 in0.0 mm 0.00 in0.0 mm
12:27 PM 82.9°F28.3°C 63.0°F17.2°C 51% 4.0 mph WSW6.4 kmh WSW 12.0 mph19.3 kmh 29.83 in1010.2 mb 0.00 in0.0 mm 0.00 in0.0 mm 0.00 in0.0 mm
12:34 PM 83.8°F28.8°C 63.9°F17.7°C 51% 4.0 mph SW6.4 kmh SW 12.0 mph19.3 kmh 29.83 in1010.2 mb 0.00 in0.0 mm 0.00 in0.0 mm 0.00 in0.0 mm
12:41 PM 84.4°F29.1°C 63.1°F17.3°C 49% 4.0 mph SW6.4 kmh SW 13.0 mph20.9 kmh 29.83 in1010.2 mb 0.00 in0.0 mm 0.00 in0.0 mm 0.00 in0.0 mm
12:48 PM 84.2°F29.0°C 63.0°F17.2°C 49% 7.0 mph SW11.3 kmh SW 19.0 mph30.6 kmh 29.83 in1010.2 mb 0.00 in0.0 mm 0.00 in0.0 mm 0.00 in0.0 mm
12:55 PM 84.0°F28.9°C 62.2°F16.8°C 48% 4.0 mph SW6.4 kmh SW 15.0 mph24.1 kmh 29.82 in1009.8 mb 0.00 in0.0 mm 0.00 in0.0 mm 0.00 in0.0 mm
01:02 PM 83.8°F28.8°C 63.1°F17.3°C 50% 5.0 mph SW8.0 kmh SW 15.0 mph24.1 kmh 29.82 in1009.8 mb 0.00 in0.0 mm 0.00 in0.0 mm 0.00 in0.0 mm
01:09 PM 83.5°F28.6°C 63.0°F17.2°C 50% 4.0 mph SW6.4 kmh SW 9.0 mph14.5 kmh 29.82 in1009.8 mb 0.00 in0.0 mm 0.00 in0.0 mm 0.00 in0.0 mm
01:16 PM 83.5°F28.6°C 63.3°F17.4°C 51% 3.0 mph SW4.8 kmh SW 8.0 mph12.9 kmh 29.82 in1009.8 mb 0.00 in0.0 mm 0.00 in0.0 mm 0.00 in0.0 mm
01:23 PM 83.1°F28.4°C 62.6°F17.0°C 50% 4.0 mph SW6.4 kmh SW 12.0 mph19.3 kmh 29.82 in1009.8 mb 0.00 in0.0 mm 0.00 in0.0 mm 0.00 in0.0 mm
01:30 PM 82.8°F28.2°C 62.8°F17.1°C 51% 4.0 mph SW6.4 kmh SW 13.0 mph20.9 kmh 29.82 in1009.8 mb 0.00 in0.0 mm 0.00 in0.0 mm 0.00 in0.0 mm
01:37 PM 82.4°F28.0°C 63.0°F17.2°C 52% 4.0 mph SW6.4 kmh SW 8.0 mph12.9 kmh 29.82 in1009.8 mb 0.00 in0.0 mm 0.00 in0.0 mm 0.00 in0.0 mm
01:44 PM 82.0°F27.8°C 62.6°F17.0°C 52% 4.0 mph SW6.4 kmh SW 15.0 mph24.1 kmh 29.82 in1009.8 mb 0.00 in0.0 mm 0.00 in0.0 mm 0.00 in0.0 mm
01:51 PM 81.5°F27.5°C 62.2°F16.8°C 52% 5.0 mph WSW8.0 kmh WSW 16.0 mph25.7 kmh 29.82 in1009.8 mb 0.00 in0.0 mm 0.00 in0.0 mm 0.00 in0.0 mm
01:58 PM 81.0°F27.2°C 62.2°F16.8°C 53% 5.0 mph WSW8.0 kmh WSW 16.0 mph25.7 kmh 29.82 in1009.8 mb 0.00 in0.0 mm 0.00 in0.0 mm 0.00 in0.0 mm
02:05 PM 80.6°F27.0°C 62.4°F16.9°C 54% 5.0 mph SW8.0 kmh SW 16.0 mph25.7 kmh 29.82 in1009.8 mb 0.00 in0.0 mm 0.00 in0.0 mm 0.00 in0.0 mm
02:12 PM 80.2°F26.8°C 62.6°F17.0°C 55% 4.0 mph WSW6.4 kmh WSW 12.0 mph19.3 kmh 29.83 in1010.2 mb 0.00 in0.0 mm 0.00 in0.0 mm 0.00 in0.0 mm
02:19 PM 79.9°F26.6°C 62.2°F16.8°C 55% 5.0 mph WSW8.0 kmh WSW 13.0 mph20.9 kmh 29.84 in1010.5 mb 0.00 in0.0 mm 0.00 in0.0 mm 0.00 in0.0 mm
02:26 PM 79.3°F26.3°C 62.8°F17.1°C 57% 5.0 mph WSW8.0 kmh WSW 27.0 mph43.5 kmh 29.86 in1011.2 mb 0.00 in0.0 mm 0.00 in0.0 mm 0.00 in0.0 mm
02:33 PM 73.8°F23.2°C 60.8°F16.0°C 64% 8.0 mph NW12.9 kmh NW 27.0 mph43.5 kmh 29.86 in1011.2 mb 0.01 in0.3 mm 0.09 in2.3 mm 0.01 in0.3 mm
02:40 PM 71.1°F21.7°C 60.4°F15.8°C 69% 5.0 mph N8.0 kmh N 12.0 mph19.3 kmh 29.85 in1010.8 mb 0.03 in0.8 mm 0.17 in4.3 mm 0.03 in0.8 mm
02:47 PM 70.0°F21.1°C 59.7°F15.4°C 70% 4.0 mph NW6.4 kmh NW 13.0 mph20.9 kmh 29.85 in1010.8 mb 0.04 in1.0 mm 0.09 in2.3 mm 0.04 in1.0 mm
02:54 PM 69.6°F20.9°C 59.7°F15.4°C 71% 3.0 mph W4.8 kmh W 13.0 mph20.9 kmh 29.85 in1010.8 mb 0.05 in1.3 mm 0.09 in2.3 mm 0.05 in1.3 mm
03:01 PM 69.6°F20.9°C 59.7°F15.4°C 71% 4.0 mph WSW6.4 kmh WSW 9.0 mph14.5 kmh 29.86 in1011.2 mb 0.06 in1.5 mm 0.01 in0.3 mm 0.06 in1.5 mm
03:08 PM 69.4°F20.8°C 59.5°F15.3°C 71% 4.0 mph WSW6.4 kmh WSW 12.0 mph19.3 kmh 29.85 in1010.8 mb 0.06 in1.5 mm 0.00 in0.0 mm 0.06 in1.5 mm
03:15 PM 69.4°F20.8°C 59.5°F15.3°C 71% 4.0 mph W6.4 kmh W 8.0 mph12.9 kmh 29.85 in1010.8 mb 0.07 in1.8 mm 0.09 in2.3 mm 0.07 in1.8 mm
03:22 PM 69.3°F20.7°C 59.4°F15.2°C 71% 4.0 mph W6.4 kmh W 8.0 mph12.9 kmh 29.85 in1010.8 mb 0.08 in2.0 mm 0.09 in2.3 mm 0.08 in2.0 mm
03:29 PM 69.1°F20.6°C 59.4°F15.2°C 71% 4.0 mph W6.4 kmh W 8.0 mph12.9 kmh 29.85 in1010.8 mb 0.08 in2.0 mm 0.00 in0.0 mm 0.08 in2.0 mm
03:36 PM 69.1°F20.6°C 59.4°F15.2°C 71% 3.0 mph WSW4.8 kmh WSW 8.0 mph12.9 kmh 29.86 in1011.2 mb 0.06 in1.5 mm 0.00 in0.0 mm 0.08 in2.0 mm
03:43 PM 69.3°F20.7°C 59.4°F15.2°C 71% 3.0 mph WSW4.8 kmh WSW 7.0 mph11.3 kmh 29.87 in1011.5 mb 0.06 in1.5 mm 0.00 in0.0 mm 0.09 in2.3 mm
03:50 PM 68.9°F20.5°C 59.2°F15.1°C 71% 4.0 mph NW6.4 kmh NW 13.0 mph20.9 kmh 29.88 in1011.9 mb 0.09 in2.3 mm 0.26 in6.6 mm 0.13 in3.3 mm
03:57 PM 68.7°F20.4°C 59.4°F15.2°C 72% 4.0 mph WNW6.4 kmh WNW 13.0 mph20.9 kmh 29.88 in1011.9 mb 0.16 in4.1 mm 0.60 in15.2 mm 0.20 in5.1 mm
04:04 PM 68.5°F20.3°C 59.5°F15.3°C 73% 4.0 mph NW6.4 kmh NW 11.0 mph17.7 kmh 29.88 in1011.9 mb 0.27 in6.9 mm 0.12 in3.0 mm 0.33 in8.4 mm
04:11 PM 68.4°F20.2°C 59.4°F15.2°C 73% 4.0 mph WNW6.4 kmh WNW 12.0 mph19.3 kmh 29.87 in1011.5 mb 0.30 in7.6 mm 0.26 in6.6 mm 0.36 in9.1 mm
04:18 PM 68.4°F20.2°C 59.7°F15.4°C 74% 3.0 mph SW4.8 kmh SW 12.0 mph19.3 kmh 29.87 in1011.5 mb 0.34 in8.6 mm 0.34 in8.6 mm 0.41 in10.4 mm
04:25 PM 68.2°F20.1°C 59.5°F15.3°C 74% 4.0 mph SW6.4 kmh SW 9.0 mph14.5 kmh 29.87 in1011.5 mb 0.36 in9.1 mm 0.17 in4.3 mm 0.44 in11.2 mm
04:32 PM 68.2°F20.1°C 59.5°F15.3°C 74% 4.0 mph SW6.4 kmh SW 9.0 mph14.5 kmh 29.87 in1011.5 mb 0.36 in9.1 mm 0.00 in0.0 mm 0.44 in11.2 mm
04:39 PM 68.4°F20.2°C 59.7°F15.4°C 74% 3.0 mph WSW4.8 kmh WSW 7.0 mph11.3 kmh 29.87 in1011.5 mb 0.36 in9.1 mm 0.00 in0.0 mm 0.44 in11.2 mm
04:46 PM 68.7°F20.4°C 60.4°F15.8°C 75% 1.0 mph W1.6 kmh W 7.0 mph11.3 kmh 29.86 in1011.2 mb 0.34 in8.6 mm 0.00 in0.0 mm 0.44 in11.2 mm
04:53 PM 68.7°F20.4°C 60.3°F15.7°C 74% 1.0 mph NW1.6 kmh NW 5.0 mph8.0 kmh 29.87 in1011.5 mb 0.28 in7.1 mm 0.00 in0.0 mm 0.44 in11.2 mm
05:00 PM 69.1°F20.6°C 60.4°F15.8°C 74% 1.0 mph WNW1.6 kmh WNW 5.0 mph8.0 kmh 29.87 in1011.5 mb 0.17 in4.3 mm 0.00 in0.0 mm 0.44 in11.2 mm
05:07 PM 69.1°F20.6°C 60.4°F15.8°C 74% 1.0 mph W1.6 kmh W 5.0 mph8.0 kmh 29.87 in1011.5 mb 0.09 in2.3 mm 0.00 in0.0 mm 0.44 in11.2 mm
05:14 PM 69.1°F20.6°C 60.4°F15.8°C 74% 1.0 mph W1.6 kmh W 4.0 mph6.4 kmh 29.86 in1011.2 mb 0.07 in1.8 mm 0.00 in0.0 mm 0.44 in11.2 mm
05:21 PM 68.9°F20.5°C 60.3°F15.7°C 74% 1.0 mph WSW1.6 kmh WSW 5.0 mph8.0 kmh 29.86 in1011.2 mb 0.01 in0.3 mm 0.00 in0.0 mm 0.44 in11.2 mm
05:28 PM 68.9°F20.5°C 60.3°F15.7°C 74% 3.0 mph WSW4.8 kmh WSW 7.0 mph11.3 kmh 29.87 in1011.5 mb 0.00 in0.0 mm 0.00 in0.0 mm 0.44 in11.2 mm
05:35 PM 68.7°F20.4°C 60.1°F15.6°C 74% 1.0 mph SW1.6 kmh SW 7.0 mph11.3 kmh 29.87 in1011.5 mb 0.00 in0.0 mm 0.00 in0.0 mm 0.44 in11.2 mm
05:42 PM 68.7°F20.4°C 60.1°F15.6°C 74% 1.0 mph WSW1.6 kmh WSW 4.0 mph6.4 kmh 29.87 in1011.5 mb 0.00 in0.0 mm 0.00 in0.0 mm 0.44 in11.2 mm
05:49 PM 68.5°F20.3°C 59.9°F15.5°C 74% 3.0 mph WSW4.8 kmh WSW 4.0 mph6.4 kmh 29.87 in1011.5 mb 0.00 in0.0 mm 0.00 in0.0 mm 0.44 in11.2 mm
05:56 PM 68.5°F20.3°C 59.9°F15.5°C 74% 1.0 mph W1.6 kmh W 4.0 mph6.4 kmh 29.86 in1011.2 mb 0.00 in0.0 mm 0.00 in0.0 mm 0.44 in11.2 mm
06:03 PM 68.5°F20.3°C 59.9°F15.5°C 74% 1.0 mph WNW1.6 kmh WNW 5.0 mph8.0 kmh 29.86 in1011.2 mb 0.00 in0.0 mm 0.00 in0.0 mm 0.44 in11.2 mm
06:10 PM 68.4°F20.2°C 59.7°F15.4°C 74% 1.0 mph WSW1.6 kmh WSW 4.0 mph6.4 kmh 29.85 in1010.8 mb 0.00 in0.0 mm 0.00 in0.0 mm 0.44 in11.2 mm
06:17 PM 68.4°F20.2°C 59.7°F15.4°C 74% 3.0 mph WSW4.8 kmh WSW 7.0 mph11.3 kmh 29.85 in1010.8 mb 0.00 in0.0 mm 0.00 in0.0 mm 0.44 in11.2 mm
06:24 PM 68.2°F20.1°C 59.5°F15.3°C 74% 3.0 mph W4.8 kmh W 7.0 mph11.3 kmh 29.85 in1010.8 mb 0.00 in0.0 mm 0.00 in0.0 mm 0.44 in11.2 mm
06:31 PM 68.2°F20.1°C 59.5°F15.3°C 74% 1.0 mph SW1.6 kmh SW 7.0 mph11.3 kmh 29.84 in1010.5 mb 0.01 in0.3 mm 0.09 in2.3 mm 0.45 in11.4 mm
06:38 PM 68.2°F20.1°C 59.5°F15.3°C 74% Calm Calm 3.0 mph4.8 kmh 29.83 in1010.2 mb 0.02 in0.5 mm 0.09 in2.3 mm 0.46 in11.7 mm
06:45 PM 68.2°F20.1°C 59.5°F15.3°C 74% Calm Calm 3.0 mph4.8 kmh 29.83 in1010.2 mb 0.02 in0.5 mm 0.00 in0.0 mm 0.46 in11.7 mm
06:52 PM 68.0°F20.0°C 59.4°F15.2°C 74% Calm Calm 3.0 mph4.8 kmh 29.82 in1009.8 mb 0.02 in0.5 mm 0.00 in0.0 mm 0.46 in11.7 mm
06:59 PM 67.6°F19.8°C 59.2°F15.1°C 74% Calm Calm 3.0 mph4.8 kmh 29.82 in1009.8 mb 0.02 in0.5 mm 0.00 in0.0 mm 0.46 in11.7 mm
07:06 PM 67.6°F19.8°C 59.5°F15.3°C 75% 1.0 mph SW1.6 kmh SW 4.0 mph6.4 kmh 29.83 in1010.2 mb 0.02 in0.5 mm 0.00 in0.0 mm 0.46 in11.7 mm
07:13 PM 67.6°F19.8°C 59.5°F15.3°C 75% 1.0 mph SW1.6 kmh SW 8.0 mph12.9 kmh 29.82 in1009.8 mb 0.02 in0.5 mm 0.00 in0.0 mm 0.46 in11.7 mm
07:20 PM 67.6°F19.8°C 59.5°F15.3°C 75% 3.0 mph SW4.8 kmh SW 8.0 mph12.9 kmh 29.82 in1009.8 mb 0.02 in0.5 mm 0.00 in0.0 mm 0.46 in11.7 mm
07:27 PM 67.6°F19.8°C 59.5°F15.3°C 75% 1.0 mph SW1.6 kmh SW 3.0 mph4.8 kmh 29.81 in1009.5 mb 0.02 in0.5 mm 0.00 in0.0 mm 0.46 in11.7 mm
07:34 PM 67.6°F19.8°C 59.5°F15.3°C 75% 1.0 mph SSW1.6 kmh SSW 3.0 mph4.8 kmh 29.80 in1009.1 mb 0.01 in0.3 mm 0.00 in0.0 mm 0.46 in11.7 mm
07:52 PM 67.5°F19.7°C 59.2°F15.1°C 75% Calm Calm 1.0 mph1.6 kmh 29.83 in1010.2 mb 0.00 in0.0 mm 0.00 in0.0 mm 0.46 in11.7 mm
07:59 PM 67.3°F19.6°C 59.2°F15.1°C 75% Calm Calm 1.0 mph1.6 kmh 29.83 in1010.2 mb 0.00 in0.0 mm 0.00 in0.0 mm 0.46 in11.7 mm
08:06 PM 67.3°F19.6°C 59.2°F15.1°C 75% Calm Calm 3.0 mph4.8 kmh 29.83 in1010.2 mb 0.00 in0.0 mm 0.00 in0.0 mm 0.46 in11.7 mm
08:13 PM 67.1°F19.5°C 58.8°F14.9°C 75% Calm Calm 1.0 mph1.6 kmh 29.83 in1010.2 mb 0.00 in0.0 mm 0.00 in0.0 mm 0.46 in11.7 mm
08:20 PM 66.9°F19.4°C 58.6°F14.8°C 75% Calm Calm 3.0 mph4.8 kmh 29.83 in1010.2 mb 0.00 in0.0 mm 0.00 in0.0 mm 0.46 in11.7 mm
08:27 PM 66.7°F19.3°C 58.6°F14.8°C 75% Calm Calm 3.0 mph4.8 kmh 29.83 in1010.2 mb 0.00 in0.0 mm 0.00 in0.0 mm 0.46 in11.7 mm
08:34 PM 66.6°F19.2°C 58.5°F14.7°C 75% Calm Calm -- 29.83 in1010.2 mb 0.00 in0.0 mm 0.00 in0.0 mm 0.46 in11.7 mm
08:41 PM 66.2°F19.0°C 58.1°F14.5°C 75% Calm Calm 1.0 mph1.6 kmh 29.82 in1009.8 mb 0.00 in0.0 mm 0.00 in0.0 mm 0.46 in11.7 mm
08:48 PM 65.8°F18.8°C 57.7°F14.3°C 75% Calm Calm -- 29.83 in1010.2 mb 0.00 in0.0 mm 0.00 in0.0 mm 0.46 in11.7 mm
08:55 PM 65.5°F18.6°C 57.4°F14.1°C 75% Calm Calm -- 29.82 in1009.8 mb 0.00 in0.0 mm 0.00 in0.0 mm 0.46 in11.7 mm
09:02 PM 65.1°F18.4°C 57.0°F13.9°C 75% Calm Calm -- 29.83 in1010.2 mb 0.00 in0.0 mm 0.00 in0.0 mm 0.46 in11.7 mm
09:09 PM 64.9°F18.3°C 56.8°F13.8°C 75% Calm Calm -- 29.83 in1010.2 mb 0.00 in0.0 mm 0.00 in0.0 mm 0.46 in11.7 mm
09:16 PM 64.9°F18.3°C 57.2°F14.0°C 76% Calm Calm -- 29.83 in1010.2 mb 0.00 in0.0 mm 0.00 in0.0 mm 0.46 in11.7 mm
09:23 PM 65.1°F18.4°C 57.4°F14.1°C 76% Calm Calm -- 29.82 in1009.8 mb 0.00 in0.0 mm 0.00 in0.0 mm 0.46 in11.7 mm
09:30 PM 64.9°F18.3°C 57.2°F14.0°C 76% Calm Calm -- 29.82 in1009.8 mb 0.00 in0.0 mm 0.00 in0.0 mm 0.46 in11.7 mm
09:37 PM 64.8°F18.2°C 57.0°F13.9°C 76% Calm Calm -- 29.82 in1009.8 mb 0.00 in0.0 mm 0.00 in0.0 mm 0.46 in11.7 mm
09:44 PM 64.6°F18.1°C 56.8°F13.8°C 76% Calm Calm -- 29.82 in1009.8 mb 0.00 in0.0 mm 0.00 in0.0 mm 0.46 in11.7 mm
09:51 PM 64.8°F18.2°C 57.0°F13.9°C 76% Calm Calm -- 29.82 in1009.8 mb 0.00 in0.0 mm 0.00 in0.0 mm 0.46 in11.7 mm
09:58 PM 64.6°F18.1°C 56.8°F13.8°C 76% Calm Calm -- 29.82 in1009.8 mb 0.00 in0.0 mm 0.00 in0.0 mm 0.46 in11.7 mm
10:05 PM 64.8°F18.2°C 57.0°F13.9°C 76% Calm Calm -- 29.82 in1009.8 mb 0.00 in0.0 mm 0.00 in0.0 mm 0.46 in11.7 mm
10:12 PM 64.8°F18.2°C 57.0°F13.9°C 76% Calm Calm -- 29.82 in1009.8 mb 0.00 in0.0 mm 0.00 in0.0 mm 0.46 in11.7 mm
10:19 PM 64.6°F18.1°C 56.8°F13.8°C 76% Calm Calm -- 29.82 in1009.8 mb 0.00 in0.0 mm 0.00 in0.0 mm 0.46 in11.7 mm
10:26 PM 64.8°F18.2°C 57.0°F13.9°C 76% Calm Calm -- 29.81 in1009.5 mb 0.00 in0.0 mm 0.00 in0.0 mm 0.46 in11.7 mm
10:33 PM 64.9°F18.3°C 57.2°F14.0°C 76% Calm Calm -- 29.80 in1009.1 mb 0.00 in0.0 mm 0.00 in0.0 mm 0.46 in11.7 mm
10:40 PM 64.8°F18.2°C 57.0°F13.9°C 76% Calm Calm -- 29.80 in1009.1 mb 0.00 in0.0 mm 0.00 in0.0 mm 0.46 in11.7 mm
10:47 PM 64.9°F18.3°C 57.2°F14.0°C 76% Calm Calm -- 29.80 in1009.1 mb 0.00 in0.0 mm 0.00 in0.0 mm 0.46 in11.7 mm
10:54 PM 65.3°F18.5°C 57.6°F14.2°C 76% Calm Calm -- 29.80 in1009.1 mb 0.00 in0.0 mm 0.00 in0.0 mm 0.46 in11.7 mm
11:01 PM 65.7°F18.7°C 57.7°F14.3°C 76% Calm Calm -- 29.80 in1009.1 mb 0.00 in0.0 mm 0.00 in0.0 mm 0.40 in10.2 mm
11:08 PM 65.7°F18.7°C 57.9°F14.4°C 76% Calm Calm -- 29.80 in1009.1 mb 0.00 in0.0 mm 0.00 in0.0 mm 0.40 in10.2 mm
11:15 PM 65.7°F18.7°C 57.9°F14.4°C 76% Calm Calm -- 29.80 in1009.1 mb 0.00 in0.0 mm 0.00 in0.0 mm 0.40 in10.2 mm
11:22 PM 65.8°F18.8°C 58.1°F14.5°C 76% Calm Calm -- 29.80 in1009.1 mb 0.00 in0.0 mm 0.00 in0.0 mm 0.40 in10.2 mm
11:29 PM 65.8°F18.8°C 58.1°F14.5°C 76% Calm Calm -- 29.81 in1009.5 mb 0.00 in0.0 mm 0.00 in0.0 mm 0.40 in10.2 mm
11:36 PM 66.0°F18.9°C 58.3°F14.6°C 76% Calm Calm -- 29.81 in1009.5 mb 0.00 in0.0 mm 0.00 in0.0 mm 0.40 in10.2 mm
11:43 PM 65.8°F18.8°C 58.1°F14.5°C 76% Calm Calm -- 29.80 in1009.1 mb 0.00 in0.0 mm 0.00 in0.0 mm 0.40 in10.2 mm
11:50 PM 65.8°F18.8°C 58.1°F14.5°C 76% Calm Calm -- 29.80 in1009.1 mb 0.00 in0.0 mm 0.00 in0.0 mm 0.40 in10.2 mm
11:57 PM 65.8°F18.8°C 58.1°F14.5°C 76% Calm Calm -- 29.80 in1009.1 mb 0.00 in0.0 mm 0.00 in0.0 mm 0.40 in10.2 mm